Thunder radar more information blitzortung!


Radar de pluja more information rain snow radar


Visita la nostra xarxa de llocs de meteo:

Template documentation
and downloads

And another site



No particular awareness of the weather is required.    There are no Weather-warnings

Pagina Historial Weather Underground text

Diari Resum May 25, 2017 Unitats:  Mètric    Imperial   Tant
« Previous Dia
SegĂźent Dia »
Diari Setmana Mensual Anual Personalitzada
  Maxima: Minima: Media:
Temperatura: -17.8 °C -8.7 °C -3.2 °C
Punt de rosada: -17.8 °C -15.1 °C -13.1 °C
Humitat: Humidity % 22 % 35 %
Wind Speed: 0 km/h 0 km/h 10.9 km/h
RĂ fegues de vent: 0 km/h - -
Vent:- - SW
Pression baro: 0 hPa 34198.6 hPa -
Precipitacions: 0 mm    
Historical Graphs
 
 
Dades de taula per May 25, 2017
Temps Temperatura Punt de rosada Pression baro Vent Wind Speed RĂ fegues de vent Humitat Rainfall Rate (Hourly)
-17.8 °C -17.8 °C 0 hPa Calm     Humidity % 0 mm
00:00 -6 °C -14.1 °C 34428.8 hPa WSW 7.6 km/h 7.6 km/h 39 % 0 mm
00:05 -6.1 °C -13.9 °C 34428.8 hPa SW 6 km/h 6 km/h 40 % 0 mm
00:15 -8.3 °C -13.6 °C 34361.1 hPa WSW 2.6 km/h 5.1 km/h 54 % 0 mm
00:25 -8.2 °C -13.4 °C 34327.3 hPa Calm   7.7 km/h 54 % 0 mm
00:35 -8.4 °C -13.3 °C 34327.3 hPa Calm   5.1 km/h 56 % 0 mm
00:45 -8.3 °C -13.4 °C 34361.1 hPa Calm   2.6 km/h 55 % 0 mm
00:55 -8.3 °C -13.4 °C 34361.1 hPa Calm   2.6 km/h 55 % 0 mm
01:05 -8.3 °C -13.4 °C 34361.1 hPa Calm     55 % 0 mm
01:15 -8.3 °C -13.3 °C 34327.3 hPa West 2.6 km/h 5.1 km/h 55 % 0 mm
01:25 -8.3 °C -13.4 °C 34327.3 hPa WSW 5.1 km/h 5.1 km/h 55 % 0 mm
01:35 -8.6 °C -13.5 °C 34327.3 hPa SW 2.6 km/h 5.1 km/h 56 % 0 mm
01:45 -8.6 °C -13.2 °C 34327.3 hPa SW 2.6 km/h 2.6 km/h 58 % 0 mm
01:55 -8.4 °C -13.1 °C 34327.3 hPa Calm   2.6 km/h 58 % 0 mm
02:05 -8.6 °C -13.2 °C 34327.3 hPa SSE 2.6 km/h 2.6 km/h 58 % 0 mm
02:15 -8.5 °C -13.1 °C 34361.1 hPa SSW 2.6 km/h 2.6 km/h 58 % 0 mm
02:25 -8.3 °C -12.9 °C 34327.3 hPa Calm   2.6 km/h 58 % 0 mm
02:35 -7.8 °C -12.6 °C 34327.3 hPa Calm     57 % 0 mm
02:45 -7.4 °C -12.2 °C 34327.3 hPa Calm   2.6 km/h 57 % 0 mm
02:55 -7.5 °C -12.4 °C 34361.1 hPa Calm   2.6 km/h 56 % 0 mm
03:05 -7.7 °C -12.6 °C 34361.1 hPa SW 2.6 km/h 5.1 km/h 56 % 0 mm
03:15 -6.9 °C -12.3 °C 34361.1 hPa South 2.6 km/h 5.1 km/h 54 % 0 mm
03:25 -6.6 °C -12.1 °C 34361.1 hPa ENE 5.1 km/h 5.1 km/h 53 % 0 mm
03:35 -6.4 °C -11.9 °C 34361.1 hPa ENE 7.7 km/h 7.7 km/h 53 % 0 mm
03:45 -6.1 °C -11.8 °C 34327.3 hPa Calm   2.6 km/h 52 % 0 mm
03:55 -5.7 °C -11.6 °C 34361.1 hPa SSE 2.6 km/h 2.6 km/h 51 % 0 mm
04:05 -5.1 °C -11.2 °C 34361.1 hPa Calm   5.1 km/h 50 % 0 mm
04:15 -5.4 °C -11.5 °C 34361.1 hPa SSW 2.6 km/h 5.1 km/h 50 % 0 mm
04:25 -5.2 °C -11.5 °C 34361.1 hPa SW 5.1 km/h 5.1 km/h 49 % 0 mm
04:35 -4.7 °C -11.2 °C 34361.1 hPa WSW 2.6 km/h 5.1 km/h 48 % 0 mm
04:45 -4.3 °C -10.8 °C 34361.1 hPa WSW 2.6 km/h 7.7 km/h 48 % 0 mm
04:55 -4.2 °C -10.9 °C 34361.1 hPa SW 5.1 km/h 7.7 km/h 47 % 0 mm
05:05 -3.9 °C -10.8 °C 34361.1 hPa SW 2.6 km/h 7.7 km/h 46 % 0 mm
05:15 -3.5 °C -10.8 °C 34361.1 hPa SSW 2.6 km/h 7.7 km/h 44 % 0 mm
05:25 -3.1 °C -10.4 °C 34327.3 hPa SSW 2.6 km/h 5.1 km/h 44 % 0 mm
05:35 -2.8 °C -10.6 °C 34327.3 hPa SSW 2.6 km/h 7.7 km/h 42 % 0 mm
05:45 -2.3 °C -10.4 °C 34327.3 hPa South 2.6 km/h 7.7 km/h 41 % 0 mm
05:50 -2.4 °C -10.4 °C 34327.3 hPa South 2.6 km/h 5.1 km/h 41 % 0 mm
10:50 -2.4 °C -10.4 °C 34327.3 hPa NE 3.1 km/h 3.7 km/h 41 % 0 mm
10:55 -2.3 °C -10.6 °C 34327.3 hPa West 9.8 km/h 9.8 km/h 40 % 0 mm
11:00 -2.6 °C -11 °C 34327.3 hPa NNE 9 km/h 9 km/h 39 % 0 mm
11:05 -2.2 °C -10.4 °C 34327.3 hPa West 14.5 km/h 14.5 km/h 40 % 0 mm
11:10 -2.2 °C -10.7 °C 34327.3 hPa WSW 6 km/h 6 km/h 39 % 0 mm
11:15 -1.8 °C -10.3 °C 34327.3 hPa SW 9 km/h 9 km/h 39 % 0 mm
11:20 -1.3 °C -10.3 °C 34327.3 hPa SSW 9 km/h 9 km/h 37 % 0 mm
11:25 -1.3 °C -10.5 °C 34327.3 hPa SSE 6 km/h 6 km/h 36 % 0 mm
11:30 -1.1 °C -10.6 °C 34327.3 hPa SW 9.3 km/h 9.3 km/h 35 % 0 mm
11:35 -0.9 °C -11.2 °C 34327.3 hPa SE 6 km/h 6 km/h 32 % 0 mm
11:40 -0.8 °C -10.8 °C 34327.3 hPa SSW 11.9 km/h 11.9 km/h 33 % 0 mm
11:41 -0.8 °C -11.1 °C 34327.3 hPa SSE 6.3 km/h 6.3 km/h 32 % 0 mm
11:46 -0.8 °C -11.2 °C 34327.3 hPa West 15.3 km/h 15.3 km/h 32 % 0 mm
11:51 -0.8 °C -11.3 °C 34327.3 hPa South 6.8 km/h 6.8 km/h 31 % 0 mm
11:56 -0.6 °C -11.4 °C 34327.3 hPa SSW 17.9 km/h 17.9 km/h 30 % 0 mm
12:01 -0.4 °C -11 °C 34327.3 hPa SSW 11.9 km/h 11.9 km/h 31 % 0 mm
12:06 -0.6 °C -11.7 °C 34327.3 hPa SSW 11.9 km/h 11.9 km/h 29 % 0 mm
12:11 -0.5 °C -12 °C 34327.3 hPa East 11.9 km/h 11.9 km/h 28 % 0 mm
12:16 -0.6 °C -12.1 °C 34327.3 hPa SSW 17.9 km/h 17.9 km/h 28 % 0 mm
12:21 -0.3 °C -11.6 °C 34327.3 hPa SSW 9 km/h 9 km/h 29 % 0 mm
12:26 0.1 °C -11.5 °C 34327.3 hPa NW 6 km/h 6 km/h 28 % 0 mm
12:31 0.1 °C -11.4 °C 34327.3 hPa South 15 km/h 15 km/h 28 % 0 mm
12:36 0.3 °C -11.3 °C 34361.1 hPa SSW 17.9 km/h 17.9 km/h 28 % 0 mm
12:41 0.1 °C -11.8 °C 34361.1 hPa WSW 9 km/h 9 km/h 27 % 0 mm
12:46 -0.1 °C -11.9 °C 34361.1 hPa SSE 6 km/h 6 km/h 27 % 0 mm
12:51 0.3 °C -11.6 °C 34327.3 hPa SSW 15 km/h 15 km/h 27 % 0 mm
12:56 0.4 °C -11.5 °C 34327.3 hPa NNE 8.5 km/h 8.5 km/h 27 % 0 mm
13:01 0.5 °C -11.4 °C 34327.3 hPa WSW 9 km/h 9 km/h 27 % 0 mm
13:06 0.3 °C -11.9 °C 34327.3 hPa SE 6 km/h 6 km/h 26 % 0 mm
13:11 0.4 °C -11.8 °C 34327.3 hPa SSW 6 km/h 6 km/h 26 % 0 mm
13:16 0.6 °C -11.7 °C 34327.3 hPa SW 17.9 km/h 17.9 km/h 26 % 0 mm
13:21 0.6 °C -11.7 °C 34293.4 hPa South 15 km/h 15 km/h 26 % 0 mm
13:26 0.7 °C -11.9 °C 34293.4 hPa SW 8 km/h 8 km/h 25 % 0 mm
13:31 1.1 °C -11.2 °C 34293.4 hPa SE 9 km/h 9 km/h 26 % 0 mm
13:36 0.8 °C -11.4 °C 34293.4 hPa West 15 km/h 15 km/h 26 % 0 mm
13:41 0.8 °C -11.8 °C 34293.4 hPa SSW 17.9 km/h 17.9 km/h 25 % 0 mm
13:46 0.8 °C -11.8 °C 34293.4 hPa SW 15 km/h 15 km/h 25 % 0 mm
13:51 0.9 °C -11.8 °C 34293.4 hPa SW 12.7 km/h 12.7 km/h 25 % 0 mm
13:56 0.8 °C -12.2 °C 34293.4 hPa South 17.9 km/h 17.9 km/h 24 % 0 mm
14:02 0.7 °C -12.3 °C 34293.4 hPa SSW 15 km/h 15.3 km/h 24 % 0 mm
14:07 0.8 °C -12.1 °C 34256.2 hPa WSW 11.1 km/h 11.1 km/h 24 % 0 mm
14:12 0.6 °C -12.7 °C 34256.2 hPa SW 17.9 km/h 17.9 km/h 23 % 0 mm
14:17 0.6 °C -12.7 °C 34256.2 hPa WSW 23.8 km/h 23.8 km/h 23 % 0 mm
14:22 0.6 °C -12.7 °C 34256.2 hPa SW 15 km/h 15 km/h 23 % 0 mm
14:27 0.8 °C -12.5 °C 34256.2 hPa SW 23.3 km/h 23.3 km/h 23 % 0 mm
14:32 0.7 °C -12.6 °C 34256.2 hPa SW 23.8 km/h 23.8 km/h 23 % 0 mm
14:37 0.4 °C -13.2 °C 34256.2 hPa SSW 23.8 km/h 23.8 km/h 22 % 0 mm
14:42 0.4 °C -13.2 °C 34256.2 hPa SW 26.9 km/h 26.9 km/h 22 % 0 mm
14:47 0.6 °C -13 °C 34256.2 hPa SW 6 km/h 9.3 km/h 22 % 0 mm
14:52 0.7 °C -13 °C 34256.2 hPa SSE 18.3 km/h 18.3 km/h 22 % 0 mm
14:57 0.6 °C -13.1 °C 34256.2 hPa SSE 17.9 km/h 17.9 km/h 22 % 0 mm
15:02 0.6 °C -13 °C 34256.2 hPa SW 15 km/h 15 km/h 22 % 0 mm
15:07 0.4 °C -13.2 °C 34256.2 hPa SW 15 km/h 15 km/h 22 % 0 mm
15:12 0.4 °C -12.9 °C 34256.2 hPa SSW 26.9 km/h 26.9 km/h 23 % 0 mm
15:17 0.3 °C -12.9 °C 34256.2 hPa SW 15 km/h 15 km/h 23 % 0 mm
15:22 0.3 °C -12.9 °C 34256.2 hPa WNW 15 km/h 15 km/h 23 % 0 mm
15:27 -0.2 °C -13.3 °C 34256.2 hPa SW 26.9 km/h 26.9 km/h 23 % 0 mm
15:32 -0.1 °C -12.9 °C 34256.2 hPa SW 26.9 km/h 26.9 km/h 24 % 0 mm
15:37 0.2 °C -13.1 °C 34256.2 hPa SSW 15 km/h 15 km/h 23 % 0 mm
15:42 -0.1 °C -12.9 °C 34256.2 hPa SSE 17.9 km/h 17.9 km/h 24 % 0 mm
15:47 -0.2 °C -12.9 °C 34256.2 hPa SW 32.8 km/h 32.8 km/h 24 % 0 mm
15:52 -0.3 °C -13.1 °C 34256.2 hPa SW 38.8 km/h 38.8 km/h 24 % 0 mm
15:57 -0.2 °C -13 °C 34256.2 hPa SSW 11.9 km/h 11.9 km/h 24 % 0 mm
16:02 -0.1 °C -12.9 °C 34256.2 hPa SW 23.8 km/h 23.8 km/h 24 % 0 mm
16:07 -0.3 °C -13.1 °C 34256.2 hPa SW 17.9 km/h 17.9 km/h 24 % 0 mm
16:12 -0.2 °C -13 °C 34256.2 hPa SSW 20.9 km/h 20.9 km/h 24 % 0 mm
16:17 -0.3 °C -13.1 °C 34256.2 hPa SW 29.8 km/h 29.8 km/h 24 % 0 mm
16:22 -0.3 °C -13.1 °C 34222.3 hPa SSW 26.9 km/h 26.9 km/h 24 % 0 mm
16:27 -0.3 °C -13.1 °C 34222.3 hPa South 17.9 km/h 17.9 km/h 24 % 0 mm
16:32 -0.5 °C -13.2 °C 34222.3 hPa SW 29.8 km/h 29.8 km/h 24 % 0 mm
16:37 -0.3 °C -12.8 °C 34222.3 hPa SW 16.6 km/h 16.6 km/h 25 % 0 mm
16:42 -0.2 °C -12.6 °C 34222.3 hPa SW 17.9 km/h 17.9 km/h 25 % 0 mm
16:47 -0.3 °C -12.8 °C 34222.3 hPa SW 29.8 km/h 29.8 km/h 25 % 0 mm
16:52 -0.4 °C -12.9 °C 34222.3 hPa South 22 km/h 22 km/h 25 % 0 mm
16:57 -0.5 °C -12.9 °C 34222.3 hPa SW 20.9 km/h 20.9 km/h 25 % 0 mm
17:02 -0.7 °C -13.1 °C 34222.3 hPa West 23.8 km/h 23.8 km/h 25 % 0 mm
17:07 -0.6 °C -12.9 °C 34222.3 hPa SW 26.9 km/h 26.9 km/h 25 % 0 mm
17:12 -0.6 °C -13 °C 34222.3 hPa SW 18.3 km/h 18.3 km/h 25 % 0 mm
17:17 -0.8 °C -13.2 °C 34222.3 hPa SW 26.9 km/h 26.9 km/h 25 % 0 mm
17:22 -0.6 °C -12.9 °C 34222.3 hPa West 18.3 km/h 18.3 km/h 25 % 0 mm
17:27 -0.5 °C -12.9 °C 34222.3 hPa SSE 22 km/h 22 km/h 25 % 0 mm
17:32 -0.6 °C -12.7 °C 34222.3 hPa SW 27.7 km/h 27.7 km/h 26 % 0 mm
17:37 -0.7 °C -12.7 °C 34222.3 hPa WSW 22 km/h 22 km/h 26 % 0 mm
17:42 -0.9 °C -13.2 °C 34222.3 hPa SW 26.9 km/h 26.9 km/h 25 % 0 mm
17:47 -1 °C -13.3 °C 34222.3 hPa SSW 17.9 km/h 17.9 km/h 25 % 0 mm
17:52 -1.1 °C -13.4 °C 34256.2 hPa SSW 23.8 km/h 23.8 km/h 25 % 0 mm
17:57 -1.1 °C -13.4 °C 34256.2 hPa SSW 17.9 km/h 17.9 km/h 25 % 0 mm
18:02 -1.1 °C -13.4 °C 34256.2 hPa South 23.8 km/h 23.8 km/h 25 % 0 mm
18:07 -1.3 °C -13.6 °C 34222.3 hPa West 15.3 km/h 15.3 km/h 25 % 0 mm
18:12 -1.3 °C -13.6 °C 34222.3 hPa NW 20.9 km/h 20.9 km/h 25 % 0 mm
18:17 -1.3 °C -13.6 °C 34222.3 hPa West 23.8 km/h 23.8 km/h 25 % 0 mm
18:22 -1.4 °C -13.7 °C 34222.3 hPa WSW 22.5 km/h 22.5 km/h 25 % 0 mm
18:27 -1.5 °C -13.8 °C 34222.3 hPa WSW 20.9 km/h 20.9 km/h 25 % 0 mm
18:32 -1.6 °C -13.8 °C 34222.3 hPa WSW 23.8 km/h 23.8 km/h 25 % 0 mm
18:37 -1.7 °C -13.9 °C 34222.3 hPa SSW 29.8 km/h 29.8 km/h 25 % 0 mm
18:42 -1.7 °C -13.9 °C 34222.3 hPa SW 20.9 km/h 20.9 km/h 25 % 0 mm
18:47 -1.8 °C -14.1 °C 34222.3 hPa SW 25.1 km/h 25.1 km/h 25 % 0 mm
18:52 -1.8 °C -14.1 °C 34198.6 hPa WSW 26.9 km/h 26.9 km/h 25 % 0 mm
18:57 -1.9 °C -14.1 °C 34198.6 hPa SSE 39.9 km/h 39.9 km/h 25 % 0 mm
19:02 -2 °C -14.5 °C 34198.6 hPa SW 17.9 km/h 17.9 km/h 24 % 0 mm
19:07 -2.1 °C -14.6 °C 34198.6 hPa SW 26.4 km/h 26.4 km/h 24 % 0 mm
19:12 -2.1 °C -14.6 °C 34198.6 hPa West 31.4 km/h 31.4 km/h 24 % 0 mm
19:17 -2.2 °C -14.7 °C 34198.6 hPa SW 32.8 km/h 32.8 km/h 24 % 0 mm
19:22 -2.2 °C -14.7 °C 34198.6 hPa SSW 23.8 km/h 23.8 km/h 24 % 0 mm
19:25 -5.9 °C -13.2 °C 34293.4 hPa WSW 2.6 km/h 5.1 km/h 43 % 0 mm
19:27 -2.2 °C -14.7 °C 34198.6 hPa SSW 26.9 km/h 26.9 km/h 24 % 0 mm
19:32 -2.3 °C -14.4 °C 34198.6 hPa SW 17.9 km/h 17.9 km/h 25 % 0 mm
19:35 -6 °C -13.1 °C 34293.4 hPa Calm   5.1 km/h 44 % 0 mm
19:37 -2.3 °C -14.5 °C 34198.6 hPa South 11.9 km/h 11.9 km/h 25 % 0 mm
19:42 -2.3 °C -14.5 °C 34198.6 hPa SW 11.9 km/h 11.9 km/h 25 % 0 mm
19:45 -6.1 °C -13.1 °C 34293.4 hPa Calm     44 % 0 mm
19:47 -2.4 °C -14.6 °C 34198.6 hPa WSW 15 km/h 15 km/h 25 % 0 mm
19:52 -2.5 °C -14.6 °C 34198.6 hPa WSW 15 km/h 15 km/h 25 % 0 mm
19:55 -6.3 °C -13 °C 34327.3 hPa WNW 2.6 km/h 2.6 km/h 46 % 0 mm
19:57 -2.6 °C -14.7 °C 34198.6 hPa NW 15.6 km/h 15.6 km/h 25 % 0 mm
20:02 -2.7 °C -14.8 °C 34198.6 hPa SW 17.9 km/h 17.9 km/h 25 % 0 mm
20:05 -6.5 °C -13 °C 34327.3 hPa ENE 2.6 km/h 5.1 km/h 47 % 0 mm
20:07 -2.7 °C -14.5 °C 34198.6 hPa SSW 11.9 km/h 11.9 km/h 26 % 0 mm
20:12 -2.8 °C -14.6 °C 34198.6 hPa South 11.9 km/h 11.9 km/h 26 % 0 mm
20:15 -6.7 °C -12.9 °C 34327.3 hPa Calm     48 % 0 mm
20:17 -2.8 °C -14.6 °C 34198.6 hPa SW 6 km/h 6 km/h 26 % 0 mm
20:22 -2.9 °C -14.6 °C 34198.6 hPa SSW 15 km/h 15 km/h 26 % 0 mm
20:25 -6.8 °C -12.9 °C 34327.3 hPa Calm     49 % 0 mm
20:27 -2.9 °C -14.7 °C 34198.6 hPa SW 9 km/h 9 km/h 26 % 0 mm
20:32 -3 °C -14.7 °C 34198.6 hPa SW 15 km/h 15 km/h 26 % 0 mm
20:35 -6.8 °C -12.9 °C 34327.3 hPa Calm   2.6 km/h 49 % 0 mm
20:37 -3.1 °C -14.8 °C 34198.6 hPa SW 7.6 km/h 7.6 km/h 26 % 0 mm
20:42 -3.2 °C -14.8 °C 34198.6 hPa SSW 11.9 km/h 11.9 km/h 26 % 0 mm
20:45 -6.8 °C -12.9 °C 34293.4 hPa Calm     49 % 0 mm
20:47 -3.3 °C -15 °C 34198.6 hPa SSW 9 km/h 9 km/h 26 % 0 mm
20:50 -6.9 °C -13 °C 34293.4 hPa Calm     49 % 0 mm
20:52 -3.4 °C -14.8 °C 34198.6 hPa SW 3.1 km/h 3.1 km/h 27 % 0 mm
20:57 -3.5 °C -14.8 °C 34198.6 hPa SW 6 km/h 6 km/h 27 % 0 mm
20:58 -3.6 °C -14.9 °C 34198.6 hPa SW 6.8 km/h 6.8 km/h 27 % 0 mm
21:00 -7 °C -12.9 °C 34327.3 hPa Calm     50 % 0 mm
21:03 -3.7 °C -14.9 °C 34198.6 hPa SSW 6 km/h 6 km/h 27 % 0 mm
21:08 -3.8 °C -15.1 °C 34198.6 hPa SW 6 km/h 6 km/h 27 % 0 mm
21:10 -7.1 °C -13.1 °C 34327.3 hPa Calm     50 % 0 mm
21:13 -3.8 °C -15.1 °C 34198.6 hPa SW 6 km/h 6 km/h 27 % 0 mm
21:18 -3.9 °C -14.9 °C 34198.6 hPa WSW 6.3 km/h 6.3 km/h 28 % 0 mm
21:23 -4 °C -14.7 °C 34198.6 hPa Calm   2.3 km/h 29 % 0 mm
21:28 -4.1 °C -14.8 °C 34198.6 hPa West 6.8 km/h   29 % 0 mm
21:30 -7.1 °C -12.9 °C 34327.3 hPa Calm     51 % 0 mm
21:33 -4.2 °C -14.8 °C 34198.6 hPa WSW 6.3 km/h 6.3 km/h 29 % 0 mm
21:38 -4.2 °C -14.9 °C 34222.3 hPa SW 11.9 km/h 11.9 km/h 29 % 0 mm
21:40 -7.2 °C -12.8 °C 34327.3 hPa Calm     52 % 0 mm
21:43 -4.3 °C -14.9 °C 34222.3 hPa SW 6 km/h 6 km/h 29 % 0 mm
21:48 -4.3 °C -14.9 °C 34222.3 hPa WSW 4.2 km/h 4.2 km/h 29 % 0 mm
21:50 -7.2 °C -12.7 °C 34327.3 hPa Calm     53 % 0 mm
21:53 -4.4 °C -15.1 °C 34222.3 hPa SW 3.1 km/h 3.1 km/h 29 % 0 mm
21:58 -4.4 °C -14.8 °C 34222.3 hPa WSW 6 km/h 6 km/h 30 % 0 mm
22:03 -4.4 °C -14.8 °C 34222.3 hPa West 6 km/h 6 km/h 30 % 0 mm
22:08 -4.6 °C -14.9 °C 34256.2 hPa WSW 6 km/h 6 km/h 30 % 0 mm
22:10 -7.2 °C -12.7 °C 34327.3 hPa Calm     53 % 0 mm
22:13 -4.7 °C -15.1 °C 34256.2 hPa West 7.6 km/h 7.6 km/h 30 % 0 mm
22:18 -4.8 °C -14.9 °C 34256.2 hPa SW 7.6 km/h 7.6 km/h 31 % 0 mm
22:20 -7.5 °C -12.6 °C 34327.3 hPa Calm   2.6 km/h 55 % 0 mm
22:23 -4.9 °C -14.9 °C 34256.2 hPa SW 3.7 km/h 3.7 km/h 31 % 0 mm
22:28 -5 °C -14.8 °C 34256.2 hPa SW 6 km/h 6 km/h 32 % 0 mm
22:30 -7.8 °C -12.9 °C 34327.3 hPa NE 2.6 km/h 5.1 km/h 55 % 0 mm
22:33 -5.1 °C -14.6 °C 34256.2 hPa WSW 6.3 km/h 6.3 km/h 33 % 0 mm
22:38 -5.1 °C -14.6 °C 34256.2 hPa West 9 km/h 9 km/h 33 % 0 mm
22:40 -8 °C -12.9 °C 34327.3 hPa Calm     56 % 0 mm
22:43 -5.1 °C -14.4 °C 34256.2 hPa West 9 km/h 9 km/h 34 % 0 mm
22:48 -5.1 °C -14.1 °C 34256.2 hPa WSW 6 km/h 6 km/h 35 % 0 mm
22:50 -8.3 °C -13.1 °C 34327.3 hPa Calm   5.1 km/h 57 % 0 mm
22:53 -5.2 °C -14 °C 34256.2 hPa WSW 6.3 km/h 6.3 km/h 36 % 0 mm
22:58 -5.2 °C -13.8 °C 34256.2 hPa WSW 6 km/h 6 km/h 37 % 0 mm
23:00 -8.3 °C -12.9 °C 34327.3 hPa Calm   2.6 km/h 58 % 0 mm
23:03 -5.3 °C -13.9 °C 34256.2 hPa West 6.3 km/h 6.3 km/h 37 % 0 mm
23:08 -5.4 °C -13.7 °C 34222.3 hPa West 3.7 km/h 3.7 km/h 38 % 0 mm
23:10 -8.4 °C -12.8 °C 34327.3 hPa Calm     60 % 0 mm
23:13 -5.4 °C -13.7 °C 34222.3 hPa WSW 6.3 km/h 6.3 km/h 38 % 0 mm
23:18 -5.4 °C -13.6 °C 34222.3 hPa SW 6 km/h 6 km/h 39 % 0 mm
23:20 -8.6 °C -12.7 °C 34327.3 hPa Calm   5.1 km/h 61 % 0 mm
23:23 -5.5 °C -13.6 °C 34256.2 hPa SW 6 km/h 6 km/h 39 % 0 mm
23:28 -5.6 °C -13.4 °C 34256.2 hPa West 6 km/h 6 km/h 40 % 0 mm
23:30 -8.6 °C -12.8 °C 34361.1 hPa NE 2.6 km/h 5.1 km/h 61 % 0 mm
23:33 -5.6 °C -13.4 °C 34256.2 hPa West 6 km/h 6 km/h 40 % 0 mm
23:38 -5.6 °C -13.5 °C 34256.2 hPa West 6 km/h 6 km/h 40 % 0 mm
23:40 -8.7 °C -12.7 °C 34327.3 hPa Calm   5.1 km/h 62 % 0 mm
23:43 -5.6 °C -13.3 °C 34256.2 hPa West 4.2 km/h 4.2 km/h 41 % 0 mm
23:48 -5.7 °C -13.4 °C 34256.2 hPa SW 3.1 km/h   41 % 0 mm
23:50 -8.7 °C -12.9 °C 34327.3 hPa SW 2.6 km/h 5.1 km/h 61 % 0 mm
23:53 -5.7 °C -13.4 °C 34256.2 hPa West 6 km/h 6 km/h 41 % 0 mm
23:58 -5.7 °C -13.2 °C 34256.2 hPa West 3.1 km/h   42 % 0 mm
Meteo Sesrovires
Elogis d' Weather Underground - 1.5 mb

Guio original per  Jim McMurry - jmcmurry@mwt.net Adaptat per a la plantilla per  Wim van der Kuil - Leuven-Template.eu

Trobareu la nostra informacio del temps tambe a:

Weather Underground

AWEKAS